sensor_id;sensor_type;location;lat;lon;timestamp;P1;durP1;ratioP1;P2;durP2;ratioP2
22622;SDS011;11478;51.094;7.030;2023-07-22T00:01:52;14.25;;;9.07;;
22622;SDS011;11478;51.094;7.030;2023-07-22T00:04:18;13.25;;;8.70;;
22622;SDS011;11478;51.094;7.030;2023-07-22T00:06:46;15.00;;;9.02;;
22622;SDS011;11478;51.094;7.030;2023-07-22T00:09:12;15.20;;;9.90;;
22622;SDS011;11478;51.094;7.030;2023-07-22T00:11:42;13.45;;;9.20;;
22622;SDS011;11478;51.094;7.030;2023-07-22T00:14:08;11.82;;;9.10;;
22622;SDS011;11478;51.094;7.030;2023-07-22T00:19:04;11.82;;;8.93;;
22622;SDS011;11478;51.094;7.030;2023-07-22T00:21:34;12.63;;;9.13;;
22622;SDS011;11478;51.094;7.030;2023-07-22T00:24:00;13.02;;;8.90;;
22622;SDS011;11478;51.094;7.030;2023-07-22T00:28:55;13.63;;;9.43;;
22622;SDS011;11478;51.094;7.030;2023-07-22T00:34:09;11.60;;;9.18;;
22622;SDS011;11478;51.094;7.030;2023-07-22T00:39:09;13.98;;;9.82;;
22622;SDS011;11478;51.094;7.030;2023-07-22T00:41:52;12.93;;;8.73;;
22622;SDS011;11478;51.094;7.030;2023-07-22T00:44:18;13.77;;;9.20;;
22622;SDS011;11478;51.094;7.030;2023-07-22T00:46:46;15.45;;;9.18;;
22622;SDS011;11478;51.094;7.030;2023-07-22T00:49:11;11.82;;;9.00;;
22622;SDS011;11478;51.094;7.030;2023-07-22T00:54:12;15.13;;;9.35;;
22622;SDS011;11478;51.094;7.030;2023-07-22T00:56:39;13.35;;;8.68;;
22622;SDS011;11478;51.094;7.030;2023-07-22T00:59:09;12.98;;;8.77;;
22622;SDS011;11478;51.094;7.030;2023-07-22T01:01:35;17.45;;;9.40;;
22622;SDS011;11478;51.094;7.030;2023-07-22T01:04:09;12.77;;;9.00;;
22622;SDS011;11478;51.094;7.030;2023-07-22T01:06:35;14.13;;;8.98;;
22622;SDS011;11478;51.094;7.030;2023-07-22T01:09:07;13.13;;;8.35;;
22622;SDS011;11478;51.094;7.030;2023-07-22T01:11:34;14.20;;;9.20;;
22622;SDS011;11478;51.094;7.030;2023-07-22T01:14:00;13.65;;;8.77;;
22622;SDS011;11478;51.094;7.030;2023-07-22T01:16:29;12.10;;;8.90;;
22622;SDS011;11478;51.094;7.030;2023-07-22T01:18:59;12.10;;;8.93;;
22622;SDS011;11478;51.094;7.030;2023-07-22T01:21:25;14.50;;;9.07;;
22622;SDS011;11478;51.094;7.030;2023-07-22T01:23:52;13.07;;;8.52;;
22622;SDS011;11478;51.094;7.030;2023-07-22T01:26:19;15.25;;;9.48;;
22622;SDS011;11478;51.094;7.030;2023-07-22T01:29:01;15.60;;;9.35;;
22622;SDS011;11478;51.094;7.030;2023-07-22T01:31:30;13.50;;;8.57;;
22622;SDS011;11478;51.094;7.030;2023-07-22T01:34:08;10.60;;;7.93;;
22622;SDS011;11478;51.094;7.030;2023-07-22T01:36:33;12.40;;;8.65;;
22622;SDS011;11478;51.094;7.030;2023-07-22T01:39:00;13.38;;;9.07;;
22622;SDS011;11478;51.094;7.030;2023-07-22T01:41:26;10.88;;;8.65;;
22622;SDS011;11478;51.094;7.030;2023-07-22T01:43:52;12.82;;;8.77;;
22622;SDS011;11478;51.094;7.030;2023-07-22T01:46:18;12.82;;;8.88;;
22622;SDS011;11478;51.094;7.030;2023-07-22T01:48:45;12.88;;;8.65;;
22622;SDS011;11478;51.094;7.030;2023-07-22T01:51:11;10.45;;;8.38;;
22622;SDS011;11478;51.094;7.030;2023-07-22T01:59:08;10.50;;;8.18;;
22622;SDS011;11478;51.094;7.030;2023-07-22T02:01:43;13.02;;;8.80;;
22622;SDS011;11478;51.094;7.030;2023-07-22T02:04:09;13.88;;;8.23;;
22622;SDS011;11478;51.094;7.030;2023-07-22T02:06:36;13.73;;;8.90;;
22622;SDS011;11478;51.094;7.030;2023-07-22T02:09:02;11.93;;;8.57;;
22622;SDS011;11478;51.094;7.030;2023-07-22T02:11:39;12.15;;;8.52;;
22622;SDS011;11478;51.094;7.030;2023-07-22T02:14:04;12.20;;;8.35;;
22622;SDS011;11478;51.094;7.030;2023-07-22T02:16:35;12.80;;;9.13;;
22622;SDS011;11478;51.094;7.030;2023-07-22T02:19:04;11.55;;;7.95;;
22622;SDS011;11478;51.094;7.030;2023-07-22T02:21:34;10.60;;;8.60;;
22622;SDS011;11478;51.094;7.030;2023-07-22T02:24:00;11.70;;;8.68;;
22622;SDS011;11478;51.094;7.030;2023-07-22T02:26:28;12.00;;;8.52;;
22622;SDS011;11478;51.094;7.030;2023-07-22T02:28:54;14.15;;;8.57;;
22622;SDS011;11478;51.094;7.030;2023-07-22T02:31:21;13.55;;;8.75;;
22622;SDS011;11478;51.094;7.030;2023-07-22T02:33:47;14.50;;;8.98;;
22622;SDS011;11478;51.094;7.030;2023-07-22T02:38:43;11.15;;;8.43;;
22622;SDS011;11478;51.094;7.030;2023-07-22T02:41:25;14.15;;;8.27;;
22622;SDS011;11478;51.094;7.030;2023-07-22T02:43:51;11.32;;;8.45;;
22622;SDS011;11478;51.094;7.030;2023-07-22T02:46:30;13.38;;;8.32;;
22622;SDS011;11478;51.094;7.030;2023-07-22T02:48:57;12.20;;;9.38;;
22622;SDS011;11478;51.094;7.030;2023-07-22T02:53:56;20.23;;;8.93;;
22622;SDS011;11478;51.094;7.030;2023-07-22T02:56:23;14.35;;;9.25;;
22622;SDS011;11478;51.094;7.030;2023-07-22T02:58:59;14.45;;;9.10;;
22622;SDS011;11478;51.094;7.030;2023-07-22T03:01:25;11.57;;;8.93;;
22622;SDS011;11478;51.094;7.030;2023-07-22T03:03:54;15.68;;;9.05;;
22622;SDS011;11478;51.094;7.030;2023-07-22T03:06:20;12.73;;;8.93;;
22622;SDS011;11478;51.094;7.030;2023-07-22T03:08:49;15.20;;;9.20;;
22622;SDS011;11478;51.094;7.030;2023-07-22T03:11:16;16.90;;;10.25;;
22622;SDS011;11478;51.094;7.030;2023-07-22T03:13:55;14.45;;;9.60;;
22622;SDS011;11478;51.094;7.030;2023-07-22T03:16:20;15.15;;;9.55;;
22622;SDS011;11478;51.094;7.030;2023-07-22T03:18:46;13.82;;;9.02;;
22622;SDS011;11478;51.094;7.030;2023-07-22T03:21:12;12.30;;;9.52;;
22622;SDS011;11478;51.094;7.030;2023-07-22T03:23:42;13.20;;;10.27;;
22622;SDS011;11478;51.094;7.030;2023-07-22T03:26:08;13.40;;;9.20;;
22622;SDS011;11478;51.094;7.030;2023-07-22T03:28:49;12.82;;;9.10;;
22622;SDS011;11478;51.094;7.030;2023-07-22T03:31:15;13.55;;;9.20;;
22622;SDS011;11478;51.094;7.030;2023-07-22T03:33:53;12.00;;;9.18;;
22622;SDS011;11478;51.094;7.030;2023-07-22T03:36:19;12.35;;;9.57;;
22622;SDS011;11478;51.094;7.030;2023-07-22T03:38:46;11.07;;;8.63;;
22622;SDS011;11478;51.094;7.030;2023-07-22T03:41:14;11.57;;;8.95;;
22622;SDS011;11478;51.094;7.030;2023-07-22T03:43:40;13.20;;;9.02;;
22622;SDS011;11478;51.094;7.030;2023-07-22T03:46:07;12.45;;;9.27;;
22622;SDS011;11478;51.094;7.030;2023-07-22T03:48:33;10.90;;;8.23;;
22622;SDS011;11478;51.094;7.030;2023-07-22T03:50:59;11.98;;;9.23;;
22622;SDS011;11478;51.094;7.030;2023-07-22T03:53:33;12.90;;;8.80;;
22622;SDS011;11478;51.094;7.030;2023-07-22T03:56:01;13.75;;;9.45;;
22622;SDS011;11478;51.094;7.030;2023-07-22T03:58:27;12.43;;;8.93;;
22622;SDS011;11478;51.094;7.030;2023-07-22T04:00:54;12.32;;;9.00;;
22622;SDS011;11478;51.094;7.030;2023-07-22T04:03:20;15.45;;;9.48;;
22622;SDS011;11478;51.094;7.030;2023-07-22T04:06:01;12.88;;;9.75;;
22622;SDS011;11478;51.094;7.030;2023-07-22T04:08:26;13.50;;;9.15;;
22622;SDS011;11478;51.094;7.030;2023-07-22T04:11:08;14.48;;;11.02;;
22622;SDS011;11478;51.094;7.030;2023-07-22T04:13:36;14.18;;;10.30;;
22622;SDS011;11478;51.094;7.030;2023-07-22T04:16:02;13.70;;;9.98;;
22622;SDS011;11478;51.094;7.030;2023-07-22T04:18:28;13.52;;;10.90;;
22622;SDS011;11478;51.094;7.030;2023-07-22T04:20:59;13.38;;;9.90;;
22622;SDS011;11478;51.094;7.030;2023-07-22T04:23:26;13.13;;;10.05;;
22622;SDS011;11478;51.094;7.030;2023-07-22T04:25:52;13.00;;;9.85;;
22622;SDS011;11478;51.094;7.030;2023-07-22T04:28:18;13.18;;;9.55;;
22622;SDS011;11478;51.094;7.030;2023-07-22T04:30:53;14.32;;;9.93;;
22622;SDS011;11478;51.094;7.030;2023-07-22T04:33:21;12.13;;;9.48;;
22622;SDS011;11478;51.094;7.030;2023-07-22T04:35:59;12.07;;;9.10;;
22622;SDS011;11478;51.094;7.030;2023-07-22T04:38:26;13.10;;;9.40;;
22622;SDS011;11478;51.094;7.030;2023-07-22T04:40:53;12.45;;;9.00;;
22622;SDS011;11478;51.094;7.030;2023-07-22T04:43:19;13.43;;;9.75;;
22622;SDS011;11478;51.094;7.030;2023-07-22T04:45:46;13.45;;;9.15;;
22622;SDS011;11478;51.094;7.030;2023-07-22T04:48:15;14.40;;;9.52;;
22622;SDS011;11478;51.094;7.030;2023-07-22T04:50:51;14.95;;;9.95;;
22622;SDS011;11478;51.094;7.030;2023-07-22T04:53:17;14.02;;;8.80;;
22622;SDS011;11478;51.094;7.030;2023-07-22T04:55:44;12.52;;;8.85;;
22622;SDS011;11478;51.094;7.030;2023-07-22T04:58:10;12.95;;;8.57;;
22622;SDS011;11478;51.094;7.030;2023-07-22T05:00:41;12.00;;;8.82;;
22622;SDS011;11478;51.094;7.030;2023-07-22T05:03:09;12.40;;;9.40;;
22622;SDS011;11478;51.094;7.030;2023-07-22T05:05:38;13.65;;;9.15;;
22622;SDS011;11478;51.094;7.030;2023-07-22T05:08:03;13.32;;;9.35;;
22622;SDS011;11478;51.094;7.030;2023-07-22T05:10:41;12.68;;;8.88;;
22622;SDS011;11478;51.094;7.030;2023-07-22T05:13:07;13.70;;;9.65;;
22622;SDS011;11478;51.094;7.030;2023-07-22T05:15:33;12.35;;;9.30;;
22622;SDS011;11478;51.094;7.030;2023-07-22T05:17:59;12.32;;;8.70;;
22622;SDS011;11478;51.094;7.030;2023-07-22T05:20:25;11.88;;;9.10;;
22622;SDS011;11478;51.094;7.030;2023-07-22T05:22:51;11.95;;;8.98;;
22622;SDS011;11478;51.094;7.030;2023-07-22T05:25:17;13.43;;;8.68;;
22622;SDS011;11478;51.094;7.030;2023-07-22T05:27:49;9.23;;;8.13;;
22622;SDS011;11478;51.094;7.030;2023-07-22T05:30:15;15.10;;;8.70;;
22622;SDS011;11478;51.094;7.030;2023-07-22T05:32:45;12.52;;;9.25;;
22622;SDS011;11478;51.094;7.030;2023-07-22T05:35:20;11.40;;;8.35;;
22622;SDS011;11478;51.094;7.030;2023-07-22T05:37:49;16.92;;;9.88;;
22622;SDS011;11478;51.094;7.030;2023-07-22T05:40:22;13.43;;;8.88;;
22622;SDS011;11478;51.094;7.030;2023-07-22T05:42:55;11.43;;;8.35;;
22622;SDS011;11478;51.094;7.030;2023-07-22T05:45:28;11.98;;;8.55;;
22622;SDS011;11478;51.094;7.030;2023-07-22T05:48:15;10.02;;;7.85;;
22622;SDS011;11478;51.094;7.030;2023-07-22T05:51:04;12.32;;;7.85;;
22622;SDS011;11478;51.094;7.030;2023-07-22T05:53:36;10.52;;;8.60;;
22622;SDS011;11478;51.094;7.030;2023-07-22T05:56:04;10.15;;;8.15;;
22622;SDS011;11478;51.094;7.030;2023-07-22T05:58:30;10.55;;;7.72;;
22622;SDS011;11478;51.094;7.030;2023-07-22T06:01:05;12.20;;;8.32;;
22622;SDS011;11478;51.094;7.030;2023-07-22T06:03:35;10.25;;;8.02;;
22622;SDS011;11478;51.094;7.030;2023-07-22T06:06:10;11.13;;;8.13;;
22622;SDS011;11478;51.094;7.030;2023-07-22T06:08:36;10.38;;;8.07;;
22622;SDS011;11478;51.094;7.030;2023-07-22T06:11:09;9.25;;;7.38;;
22622;SDS011;11478;51.094;7.030;2023-07-22T06:13:35;10.20;;;7.47;;
22622;SDS011;11478;51.094;7.030;2023-07-22T06:16:16;13.85;;;8.02;;
22622;SDS011;11478;51.094;7.030;2023-07-22T06:18:42;10.48;;;7.82;;
22622;SDS011;11478;51.094;7.030;2023-07-22T06:21:10;11.25;;;8.38;;
22622;SDS011;11478;51.094;7.030;2023-07-22T06:23:39;9.68;;;8.10;;
22622;SDS011;11478;51.094;7.030;2023-07-22T06:26:22;12.27;;;8.73;;
22622;SDS011;11478;51.094;7.030;2023-07-22T06:28:51;13.55;;;8.75;;
22622;SDS011;11478;51.094;7.030;2023-07-22T06:31:17;10.88;;;8.23;;
22622;SDS011;11478;51.094;7.030;2023-07-22T06:33:43;12.80;;;8.15;;
22622;SDS011;11478;51.094;7.030;2023-07-22T06:36:09;10.50;;;7.72;;
22622;SDS011;11478;51.094;7.030;2023-07-22T06:38:36;10.68;;;7.38;;
22622;SDS011;11478;51.094;7.030;2023-07-22T06:41:01;10.68;;;7.55;;
22622;SDS011;11478;51.094;7.030;2023-07-22T06:43:29;13.27;;;8.27;;
22622;SDS011;11478;51.094;7.030;2023-07-22T06:46:04;13.38;;;8.65;;
22622;SDS011;11478;51.094;7.030;2023-07-22T06:48:33;10.55;;;7.50;;
22622;SDS011;11478;51.094;7.030;2023-07-22T06:50:59;8.80;;;7.07;;
22622;SDS011;11478;51.094;7.030;2023-07-22T06:53:37;9.18;;;6.63;;
22622;SDS011;11478;51.094;7.030;2023-07-22T06:56:03;10.35;;;7.35;;
22622;SDS011;11478;51.094;7.030;2023-07-22T06:58:29;12.90;;;8.30;;
22622;SDS011;11478;51.094;7.030;2023-07-22T07:01:09;11.20;;;7.88;;
22622;SDS011;11478;51.094;7.030;2023-07-22T07:03:39;11.32;;;7.85;;
22622;SDS011;11478;51.094;7.030;2023-07-22T07:06:06;10.18;;;7.63;;
22622;SDS011;11478;51.094;7.030;2023-07-22T07:08:32;10.98;;;8.20;;
22622;SDS011;11478;51.094;7.030;2023-07-22T07:11:01;10.48;;;7.63;;
22622;SDS011;11478;51.094;7.030;2023-07-22T07:13:27;10.75;;;6.88;;
22622;SDS011;11478;51.094;7.030;2023-07-22T07:18:44;11.80;;;7.25;;
22622;SDS011;11478;51.094;7.030;2023-07-22T07:21:10;10.50;;;7.38;;
22622;SDS011;11478;51.094;7.030;2023-07-22T07:23:36;9.20;;;7.47;;
22622;SDS011;11478;51.094;7.030;2023-07-22T07:26:16;10.93;;;6.97;;
22622;SDS011;11478;51.094;7.030;2023-07-22T07:28:42;11.30;;;7.63;;
22622;SDS011;11478;51.094;7.030;2023-07-22T07:31:08;10.80;;;7.72;;
22622;SDS011;11478;51.094;7.030;2023-07-22T07:33:34;11.82;;;7.60;;
22622;SDS011;11478;51.094;7.030;2023-07-22T07:36:04;10.15;;;7.35;;
22622;SDS011;11478;51.094;7.030;2023-07-22T07:38:30;11.32;;;7.47;;
22622;SDS011;11478;51.094;7.030;2023-07-22T07:41:09;9.48;;;7.32;;
22622;SDS011;11478;51.094;7.030;2023-07-22T07:43:39;13.50;;;7.40;;
22622;SDS011;11478;51.094;7.030;2023-07-22T07:46:15;9.43;;;6.85;;
22622;SDS011;11478;51.094;7.030;2023-07-22T07:48:47;9.57;;;7.03;;
22622;SDS011;11478;51.094;7.030;2023-07-22T07:51:40;9.82;;;6.82;;
22622;SDS011;11478;51.094;7.030;2023-07-22T07:54:07;10.52;;;7.70;;
22622;SDS011;11478;51.094;7.030;2023-07-22T07:56:34;10.88;;;6.88;;
22622;SDS011;11478;51.094;7.030;2023-07-22T07:59:00;8.52;;;6.97;;
22622;SDS011;11478;51.094;7.030;2023-07-22T08:01:27;10.40;;;7.57;;
22622;SDS011;11478;51.094;7.030;2023-07-22T08:03:54;10.60;;;7.40;;
22622;SDS011;11478;51.094;7.030;2023-07-22T08:06:20;11.10;;;7.20;;
22622;SDS011;11478;51.094;7.030;2023-07-22T08:08:46;10.85;;;7.43;;
22622;SDS011;11478;51.094;7.030;2023-07-22T08:11:18;10.18;;;6.80;;
22622;SDS011;11478;51.094;7.030;2023-07-22T08:13:44;8.50;;;6.63;;
22622;SDS011;11478;51.094;7.030;2023-07-22T08:16:11;11.13;;;6.97;;
22622;SDS011;11478;51.094;7.030;2023-07-22T08:18:38;10.40;;;7.10;;
22622;SDS011;11478;51.094;7.030;2023-07-22T08:21:08;8.98;;;6.82;;
22622;SDS011;11478;51.094;7.030;2023-07-22T08:23:35;8.20;;;6.80;;
22622;SDS011;11478;51.094;7.030;2023-07-22T08:26:02;8.90;;;6.53;;
22622;SDS011;11478;51.094;7.030;2023-07-22T08:28:35;11.10;;;7.53;;
22622;SDS011;11478;51.094;7.030;2023-07-22T08:31:06;11.68;;;7.50;;
22622;SDS011;11478;51.094;7.030;2023-07-22T08:33:33;9.38;;;7.57;;
22622;SDS011;11478;51.094;7.030;2023-07-22T08:35:59;11.75;;;7.25;;
22622;SDS011;11478;51.094;7.030;2023-07-22T08:38:28;7.03;;;6.20;;
22622;SDS011;11478;51.094;7.030;2023-07-22T08:41:02;9.10;;;6.72;;
22622;SDS011;11478;51.094;7.030;2023-07-22T08:45:55;7.55;;;6.20;;
22622;SDS011;11478;51.094;7.030;2023-07-22T08:48:26;8.60;;;6.45;;
22622;SDS011;11478;51.094;7.030;2023-07-22T08:53:58;14.63;;;6.25;;
22622;SDS011;11478;51.094;7.030;2023-07-22T08:56:28;8.35;;;6.05;;
22622;SDS011;11478;51.094;7.030;2023-07-22T08:58:55;7.55;;;5.78;;
22622;SDS011;11478;51.094;7.030;2023-07-22T09:01:30;8.48;;;5.88;;
22622;SDS011;11478;51.094;7.030;2023-07-22T09:03:59;10.88;;;6.60;;
22622;SDS011;11478;51.094;7.030;2023-07-22T09:06:30;9.30;;;5.80;;
22622;SDS011;11478;51.094;7.030;2023-07-22T09:08:56;7.40;;;5.43;;
22622;SDS011;11478;51.094;7.030;2023-07-22T09:11:31;7.25;;;5.55;;
22622;SDS011;11478;51.094;7.030;2023-07-22T09:13:57;7.70;;;5.88;;
22622;SDS011;11478;51.094;7.030;2023-07-22T09:16:39;9.27;;;5.95;;
22622;SDS011;11478;51.094;7.030;2023-07-22T09:19:05;7.57;;;5.10;;
22622;SDS011;11478;51.094;7.030;2023-07-22T09:24:21;8.15;;;5.63;;
22622;SDS011;11478;51.094;7.030;2023-07-22T09:26:49;6.90;;;5.38;;
22622;SDS011;11478;51.094;7.030;2023-07-22T09:29:16;10.00;;;5.50;;
22622;SDS011;11478;51.094;7.030;2023-07-22T09:31:50;7.65;;;5.50;;
22622;SDS011;11478;51.094;7.030;2023-07-22T09:34:17;6.15;;;5.30;;
22622;SDS011;11478;51.094;7.030;2023-07-22T09:36:54;9.27;;;5.03;;
22622;SDS011;11478;51.094;7.030;2023-07-22T09:39:22;9.88;;;4.43;;
22622;SDS011;11478;51.094;7.030;2023-07-22T09:41:58;5.32;;;4.80;;
22622;SDS011;11478;51.094;7.030;2023-07-22T09:44:30;8.38;;;4.43;;
22622;SDS011;11478;51.094;7.030;2023-07-22T09:47:12;7.78;;;4.32;;
22622;SDS011;11478;51.094;7.030;2023-07-22T09:49:40;5.85;;;4.78;;
22622;SDS011;11478;51.094;7.030;2023-07-22T09:52:10;6.00;;;4.35;;
22622;SDS011;11478;51.094;7.030;2023-07-22T09:54:38;7.43;;;4.13;;
22622;SDS011;11478;51.094;7.030;2023-07-22T09:57:13;6.25;;;3.85;;
22622;SDS011;11478;51.094;7.030;2023-07-22T09:59:39;9.40;;;4.60;;
22622;SDS011;11478;51.094;7.030;2023-07-22T10:02:13;8.38;;;4.15;;
22622;SDS011;11478;51.094;7.030;2023-07-22T10:04:42;7.45;;;4.07;;
22622;SDS011;11478;51.094;7.030;2023-07-22T10:07:11;6.90;;;4.20;;
22622;SDS011;11478;51.094;7.030;2023-07-22T10:09:39;6.30;;;4.40;;
22622;SDS011;11478;51.094;7.030;2023-07-22T10:12:08;7.13;;;4.03;;
22622;SDS011;11478;51.094;7.030;2023-07-22T10:14:35;6.05;;;3.90;;
22622;SDS011;11478;51.094;7.030;2023-07-22T10:17:09;8.15;;;4.03;;
22622;SDS011;11478;51.094;7.030;2023-07-22T10:19:38;7.60;;;3.83;;
22622;SDS011;11478;51.094;7.030;2023-07-22T10:22:10;3.85;;;3.20;;
22622;SDS011;11478;51.094;7.030;2023-07-22T10:24:38;5.50;;;3.60;;
22622;SDS011;11478;51.094;7.030;2023-07-22T10:27:06;4.47;;;3.20;;
22622;SDS011;11478;51.094;7.030;2023-07-22T10:29:33;5.25;;;3.40;;
22622;SDS011;11478;51.094;7.030;2023-07-22T10:34:30;6.68;;;3.40;;
22622;SDS011;11478;51.094;7.030;2023-07-22T10:36:56;4.78;;;3.00;;
22622;SDS011;11478;51.094;7.030;2023-07-22T10:39:25;4.95;;;3.40;;
22622;SDS011;11478;51.094;7.030;2023-07-22T10:45:00;6.07;;;3.20;;
22622;SDS011;11478;51.094;7.030;2023-07-22T10:47:39;3.53;;;3.00;;
22622;SDS011;11478;51.094;7.030;2023-07-22T10:50:08;6.20;;;3.10;;
22622;SDS011;11478;51.094;7.030;2023-07-22T10:52:41;3.90;;;3.10;;
22622;SDS011;11478;51.094;7.030;2023-07-22T10:57:48;4.10;;;3.10;;
22622;SDS011;11478;51.094;7.030;2023-07-22T11:02:47;4.28;;;3.42;;
22622;SDS011;11478;51.094;7.030;2023-07-22T11:05:50;4.60;;;3.50;;
22622;SDS011;11478;51.094;7.030;2023-07-22T11:08:39;5.18;;;3.40;;
22622;SDS011;11478;51.094;7.030;2023-07-22T11:11:06;4.90;;;3.20;;
22622;SDS011;11478;51.094;7.030;2023-07-22T11:13:39;5.72;;;3.22;;
22622;SDS011;11478;51.094;7.030;2023-07-22T11:16:09;5.07;;;3.05;;
22622;SDS011;11478;51.094;7.030;2023-07-22T11:21:32;4.75;;;2.78;;
22622;SDS011;11478;51.094;7.030;2023-07-22T11:26:33;3.70;;;2.83;;
22622;SDS011;11478;51.094;7.030;2023-07-22T11:29:07;5.40;;;3.10;;
22622;SDS011;11478;51.094;7.030;2023-07-22T11:31:37;3.85;;;2.60;;
22622;SDS011;11478;51.094;7.030;2023-07-22T11:34:20;3.05;;;2.42;;
22622;SDS011;11478;51.094;7.030;2023-07-22T11:36:50;3.80;;;2.70;;
22622;SDS011;11478;51.094;7.030;2023-07-22T11:39:23;4.97;;;2.88;;
22622;SDS011;11478;51.094;7.030;2023-07-22T11:41:52;3.80;;;2.60;;
22622;SDS011;11478;51.094;7.030;2023-07-22T11:47:05;3.08;;;2.40;;
22622;SDS011;11478;51.094;7.030;2023-07-22T11:49:36;3.70;;;2.58;;
22622;SDS011;11478;51.094;7.030;2023-07-22T11:54:40;2.88;;;2.55;;
22622;SDS011;11478;51.094;7.030;2023-07-22T11:57:21;2.95;;;2.70;;
22622;SDS011;11478;51.094;7.030;2023-07-22T11:59:58;2.55;;;2.28;;
22622;SDS011;11478;51.094;7.030;2023-07-22T12:02:28;4.13;;;3.15;;
22622;SDS011;11478;51.094;7.030;2023-07-22T12:05:19;4.03;;;2.88;;
22622;SDS011;11478;51.094;7.030;2023-07-22T12:07:50;2.55;;;2.35;;
22622;SDS011;11478;51.094;7.030;2023-07-22T12:10:16;5.78;;;3.08;;
22622;SDS011;11478;51.094;7.030;2023-07-22T12:12:53;3.55;;;2.22;;
22622;SDS011;11478;51.094;7.030;2023-07-22T12:15:20;3.17;;;2.40;;
22622;SDS011;11478;51.094;7.030;2023-07-22T12:20:31;7.68;;;4.05;;
22622;SDS011;11478;51.094;7.030;2023-07-22T12:23:05;3.60;;;2.70;;
22622;SDS011;11478;51.094;7.030;2023-07-22T12:25:31;3.25;;;2.33;;
22622;SDS011;11478;51.094;7.030;2023-07-22T12:27:57;5.18;;;2.83;;
22622;SDS011;11478;51.094;7.030;2023-07-22T12:34:26;3.40;;;2.80;;
22622;SDS011;11478;51.094;7.030;2023-07-22T12:36:58;4.50;;;2.55;;
22622;SDS011;11478;51.094;7.030;2023-07-22T12:39:33;3.13;;;2.40;;
22622;SDS011;11478;51.094;7.030;2023-07-22T12:41:59;2.88;;;2.60;;
22622;SDS011;11478;51.094;7.030;2023-07-22T12:44:31;4.10;;;2.70;;
22622;SDS011;11478;51.094;7.030;2023-07-22T12:49:35;4.05;;;2.63;;
22622;SDS011;11478;51.094;7.030;2023-07-22T12:52:06;6.55;;;2.45;;
22622;SDS011;11478;51.094;7.030;2023-07-22T12:54:57;3.28;;;2.65;;
22622;SDS011;11478;51.094;7.030;2023-07-22T12:57:27;4.07;;;2.60;;
22622;SDS011;11478;51.094;7.030;2023-07-22T12:59:59;3.42;;;2.47;;
22622;SDS011;11478;51.094;7.030;2023-07-22T13:02:30;4.13;;;2.70;;
22622;SDS011;11478;51.094;7.030;2023-07-22T13:04:59;4.25;;;2.53;;
22622;SDS011;11478;51.094;7.030;2023-07-22T13:07:29;5.93;;;2.50;;
22622;SDS011;11478;51.094;7.030;2023-07-22T13:09:58;7.15;;;2.55;;
22622;SDS011;11478;51.094;7.030;2023-07-22T13:12:27;3.38;;;2.30;;
22622;SDS011;11478;51.094;7.030;2023-07-22T13:17:41;3.75;;;2.47;;
22622;SDS011;11478;51.094;7.030;2023-07-22T13:20:07;2.42;;;2.22;;
22622;SDS011;11478;51.094;7.030;2023-07-22T13:22:43;3.10;;;2.63;;
22622;SDS011;11478;51.094;7.030;2023-07-22T13:25:12;2.97;;;2.55;;
22622;SDS011;11478;51.094;7.030;2023-07-22T13:27:40;2.67;;;2.28;;
22622;SDS011;11478;51.094;7.030;2023-07-22T13:30:06;3.10;;;2.40;;
22622;SDS011;11478;51.094;7.030;2023-07-22T13:32:36;4.85;;;2.10;;
22622;SDS011;11478;51.094;7.030;2023-07-22T13:35:02;3.45;;;2.50;;
22622;SDS011;11478;51.094;7.030;2023-07-22T13:37:33;5.13;;;2.20;;
22622;SDS011;11478;51.094;7.030;2023-07-22T13:39:59;4.43;;;2.22;;
22622;SDS011;11478;51.094;7.030;2023-07-22T13:42:34;3.95;;;2.30;;
22622;SDS011;11478;51.094;7.030;2023-07-22T13:45:00;4.32;;;2.42;;
22622;SDS011;11478;51.094;7.030;2023-07-22T13:47:39;3.58;;;2.33;;
22622;SDS011;11478;51.094;7.030;2023-07-22T13:50:05;2.60;;;2.22;;
22622;SDS011;11478;51.094;7.030;2023-07-22T13:52:36;2.65;;;2.28;;
22622;SDS011;11478;51.094;7.030;2023-07-22T13:55:02;2.95;;;2.30;;
22622;SDS011;11478;51.094;7.030;2023-07-22T13:57:28;4.07;;;2.30;;
22622;SDS011;11478;51.094;7.030;2023-07-22T14:00:00;2.40;;;2.20;;
22622;SDS011;11478;51.094;7.030;2023-07-22T14:02:31;2.25;;;2.05;;
22622;SDS011;11478;51.094;7.030;2023-07-22T14:05:00;5.93;;;2.58;;
22622;SDS011;11478;51.094;7.030;2023-07-22T14:07:34;3.88;;;2.40;;
22622;SDS011;11478;51.094;7.030;2023-07-22T14:10:02;4.18;;;2.47;;
22622;SDS011;11478;51.094;7.030;2023-07-22T14:18:12;2.80;;;2.55;;
22622;SDS011;11478;51.094;7.030;2023-07-22T14:20:42;3.35;;;2.53;;
22622;SDS011;11478;51.094;7.030;2023-07-22T14:23:11;4.07;;;2.60;;
22622;SDS011;11478;51.094;7.030;2023-07-22T14:25:37;3.08;;;2.38;;
22622;SDS011;11478;51.094;7.030;2023-07-22T14:28:03;3.15;;;2.70;;
22622;SDS011;11478;51.094;7.030;2023-07-22T14:30:29;3.65;;;2.35;;
22622;SDS011;11478;51.094;7.030;2023-07-22T14:33:06;2.63;;;2.38;;
22622;SDS011;11478;51.094;7.030;2023-07-22T14:35:31;3.35;;;2.75;;
22622;SDS011;11478;51.094;7.030;2023-07-22T14:38:01;4.60;;;2.60;;
22622;SDS011;11478;51.094;7.030;2023-07-22T14:40:28;3.60;;;2.97;;
22622;SDS011;11478;51.094;7.030;2023-07-22T14:42:59;3.42;;;2.88;;
22622;SDS011;11478;51.094;7.030;2023-07-22T14:45:31;3.22;;;2.67;;
22622;SDS011;11478;51.094;7.030;2023-07-22T14:48:06;3.75;;;2.97;;
22622;SDS011;11478;51.094;7.030;2023-07-22T14:50:32;3.97;;;2.97;;
22622;SDS011;11478;51.094;7.030;2023-07-22T14:53:05;4.07;;;2.92;;
22622;SDS011;11478;51.094;7.030;2023-07-22T14:55:31;5.90;;;2.78;;
22622;SDS011;11478;51.094;7.030;2023-07-22T14:58:01;9.85;;;3.10;;
22622;SDS011;11478;51.094;7.030;2023-07-22T15:00:33;4.75;;;3.05;;
22622;SDS011;11478;51.094;7.030;2023-07-22T15:03:08;4.05;;;3.20;;
22622;SDS011;11478;51.094;7.030;2023-07-22T15:05:39;3.80;;;3.28;;
22622;SDS011;11478;51.094;7.030;2023-07-22T15:08:14;4.30;;;3.25;;
22622;SDS011;11478;51.094;7.030;2023-07-22T15:10:40;3.83;;;3.22;;
22622;SDS011;11478;51.094;7.030;2023-07-22T15:16:10;5.22;;;3.00;;
22622;SDS011;11478;51.094;7.030;2023-07-22T15:18:43;6.57;;;3.10;;
22622;SDS011;11478;51.094;7.030;2023-07-22T15:21:09;5.53;;;3.42;;
22622;SDS011;11478;51.094;7.030;2023-07-22T15:23:39;5.03;;;3.40;;
22622;SDS011;11478;51.094;7.030;2023-07-22T15:28:43;5.00;;;3.38;;
22622;SDS011;11478;51.094;7.030;2023-07-22T15:31:16;6.30;;;3.53;;
22622;SDS011;11478;51.094;7.030;2023-07-22T15:34:13;4.30;;;3.30;;
22622;SDS011;11478;51.094;7.030;2023-07-22T15:36:48;5.47;;;3.40;;
22622;SDS011;11478;51.094;7.030;2023-07-22T15:39:16;4.95;;;3.70;;
22622;SDS011;11478;51.094;7.030;2023-07-22T15:41:45;7.35;;;3.97;;
22622;SDS011;11478;51.094;7.030;2023-07-22T15:44:17;6.90;;;3.85;;
22622;SDS011;11478;51.094;7.030;2023-07-22T15:47:04;5.88;;;3.72;;
22622;SDS011;11478;51.094;7.030;2023-07-22T15:49:51;4.60;;;3.53;;
22622;SDS011;11478;51.094;7.030;2023-07-22T15:52:21;4.65;;;3.00;;
22622;SDS011;11478;51.094;7.030;2023-07-22T15:54:49;5.35;;;3.58;;
22622;SDS011;11478;51.094;7.030;2023-07-22T15:57:25;4.00;;;3.20;;
22622;SDS011;11478;51.094;7.030;2023-07-22T16:00:05;4.45;;;3.10;;
22622;SDS011;11478;51.094;7.030;2023-07-22T16:02:41;4.22;;;3.20;;
22622;SDS011;11478;51.094;7.030;2023-07-22T16:07:55;2.70;;;2.42;;
22622;SDS011;11478;51.094;7.030;2023-07-22T16:10:21;4.05;;;2.63;;
22622;SDS011;11478;51.094;7.030;2023-07-22T16:12:51;7.45;;;2.60;;
22622;SDS011;11478;51.094;7.030;2023-07-22T16:15:39;3.95;;;2.90;;
22622;SDS011;11478;51.094;7.030;2023-07-22T16:18:05;3.17;;;2.40;;
22622;SDS011;11478;51.094;7.030;2023-07-22T16:20:37;4.00;;;2.53;;